sensor_id;sensor_type;location;lat;lon;timestamp;temperature;humidity
19220;DHT22;9744;49.364;7.484;2022-12-28T00:02:09;2.50;99.90
19220;DHT22;9744;49.364;7.484;2022-12-28T00:04:36;2.50;99.90
19220;DHT22;9744;49.364;7.484;2022-12-28T00:07:03;2.60;99.90
19220;DHT22;9744;49.364;7.484;2022-12-28T00:09:30;2.60;99.90
19220;DHT22;9744;49.364;7.484;2022-12-28T00:11:59;2.70;99.90
19220;DHT22;9744;49.364;7.484;2022-12-28T00:14:26;2.70;99.90
19220;DHT22;9744;49.364;7.484;2022-12-28T00:16:53;2.90;99.90
19220;DHT22;9744;49.364;7.484;2022-12-28T00:19:20;2.80;99.90
19220;DHT22;9744;49.364;7.484;2022-12-28T00:21:47;2.80;99.90
19220;DHT22;9744;49.364;7.484;2022-12-28T00:24:17;2.90;99.90
19220;DHT22;9744;49.364;7.484;2022-12-28T00:26:44;2.90;99.90
19220;DHT22;9744;49.364;7.484;2022-12-28T00:29:13;2.90;99.90
19220;DHT22;9744;49.364;7.484;2022-12-28T00:31:41;3.00;99.90
19220;DHT22;9744;49.364;7.484;2022-12-28T00:34:09;3.00;99.90
19220;DHT22;9744;49.364;7.484;2022-12-28T00:36:36;3.00;99.90
19220;DHT22;9744;49.364;7.484;2022-12-28T00:39:04;3.00;99.90
19220;DHT22;9744;49.364;7.484;2022-12-28T00:41:33;3.00;99.90
19220;DHT22;9744;49.364;7.484;2022-12-28T00:44:00;3.00;99.90
19220;DHT22;9744;49.364;7.484;2022-12-28T00:46:28;3.00;99.90
19220;DHT22;9744;49.364;7.484;2022-12-28T00:48:55;3.00;99.90
19220;DHT22;9744;49.364;7.484;2022-12-28T00:51:23;3.00;99.90
19220;DHT22;9744;49.364;7.484;2022-12-28T00:53:50;3.00;99.90
19220;DHT22;9744;49.364;7.484;2022-12-28T00:56:19;3.10;99.90
19220;DHT22;9744;49.364;7.484;2022-12-28T00:58:47;3.10;99.90
19220;DHT22;9744;49.364;7.484;2022-12-28T01:01:16;3.20;99.90
19220;DHT22;9744;49.364;7.484;2022-12-28T01:03:46;3.20;99.90
19220;DHT22;9744;49.364;7.484;2022-12-28T01:06:15;3.20;99.90
19220;DHT22;9744;49.364;7.484;2022-12-28T01:08:43;3.20;99.90
19220;DHT22;9744;49.364;7.484;2022-12-28T01:11:13;3.30;99.90
19220;DHT22;9744;49.364;7.484;2022-12-28T01:13:42;3.30;99.90
19220;DHT22;9744;49.364;7.484;2022-12-28T01:16:10;3.30;99.90
19220;DHT22;9744;49.364;7.484;2022-12-28T01:18:38;3.30;99.90
19220;DHT22;9744;49.364;7.484;2022-12-28T01:21:11;3.30;99.90
19220;DHT22;9744;49.364;7.484;2022-12-28T01:23:41;3.40;99.90
19220;DHT22;9744;49.364;7.484;2022-12-28T01:26:08;3.40;99.90
19220;DHT22;9744;49.364;7.484;2022-12-28T01:28:38;3.40;99.90
19220;DHT22;9744;49.364;7.484;2022-12-28T01:31:07;3.40;99.90
19220;DHT22;9744;49.364;7.484;2022-12-28T01:33:34;3.40;99.90
19220;DHT22;9744;49.364;7.484;2022-12-28T01:36:05;3.50;99.90
19220;DHT22;9744;49.364;7.484;2022-12-28T01:38:34;3.50;99.90
19220;DHT22;9744;49.364;7.484;2022-12-28T01:41:01;3.50;99.90
19220;DHT22;9744;49.364;7.484;2022-12-28T01:43:38;3.50;99.90
19220;DHT22;9744;49.364;7.484;2022-12-28T01:46:07;3.50;99.90
19220;DHT22;9744;49.364;7.484;2022-12-28T01:48:36;3.50;99.90
19220;DHT22;9744;49.364;7.484;2022-12-28T01:51:08;3.50;99.90
19220;DHT22;9744;49.364;7.484;2022-12-28T01:53:37;3.60;99.90
19220;DHT22;9744;49.364;7.484;2022-12-28T01:56:05;3.60;99.90
19220;DHT22;9744;49.364;7.484;2022-12-28T01:58:33;3.60;99.90
19220;DHT22;9744;49.364;7.484;2022-12-28T02:01:01;3.60;99.90
19220;DHT22;9744;49.364;7.484;2022-12-28T02:03:30;3.60;99.90
19220;DHT22;9744;49.364;7.484;2022-12-28T02:06:00;3.60;99.90
19220;DHT22;9744;49.364;7.484;2022-12-28T02:08:32;3.60;99.90
19220;DHT22;9744;49.364;7.484;2022-12-28T02:11:04;3.70;99.90
19220;DHT22;9744;49.364;7.484;2022-12-28T02:13:33;3.70;99.90
19220;DHT22;9744;49.364;7.484;2022-12-28T02:16:02;3.70;99.90
19220;DHT22;9744;49.364;7.484;2022-12-28T02:18:30;3.70;99.90
19220;DHT22;9744;49.364;7.484;2022-12-28T02:21:21;3.70;99.90
19220;DHT22;9744;49.364;7.484;2022-12-28T02:26:56;3.70;99.90
19220;DHT22;9744;49.364;7.484;2022-12-28T02:32:47;3.80;99.90
19220;DHT22;9744;49.364;7.484;2022-12-28T02:35:24;3.80;99.90
19220;DHT22;9744;49.364;7.484;2022-12-28T02:37:57;3.80;99.90
19220;DHT22;9744;49.364;7.484;2022-12-28T02:40:27;3.80;99.90
19220;DHT22;9744;49.364;7.484;2022-12-28T02:42:56;3.80;99.90
19220;DHT22;9744;49.364;7.484;2022-12-28T02:45:34;3.80;99.90
19220;DHT22;9744;49.364;7.484;2022-12-28T02:48:21;3.90;99.90
19220;DHT22;9744;49.364;7.484;2022-12-28T02:51:13;3.90;99.90
19220;DHT22;9744;49.364;7.484;2022-12-28T02:54:26;3.90;99.90
19220;DHT22;9744;49.364;7.484;2022-12-28T02:57:28;3.90;99.90
19220;DHT22;9744;49.364;7.484;2022-12-28T03:00:04;4.00;99.90
19220;DHT22;9744;49.364;7.484;2022-12-28T03:02:47;3.90;99.90
19220;DHT22;9744;49.364;7.484;2022-12-28T03:05:27;4.00;99.90
19220;DHT22;9744;49.364;7.484;2022-12-28T03:08:16;4.00;99.90
19220;DHT22;9744;49.364;7.484;2022-12-28T03:10:54;4.00;99.90
19220;DHT22;9744;49.364;7.484;2022-12-28T03:13:29;4.00;99.90
19220;DHT22;9744;49.364;7.484;2022-12-28T03:16:18;4.10;99.90
19220;DHT22;9744;49.364;7.484;2022-12-28T03:18:51;4.10;99.90
19220;DHT22;9744;49.364;7.484;2022-12-28T03:21:40;4.10;99.90
19220;DHT22;9744;49.364;7.484;2022-12-28T03:24:27;4.20;99.90
19220;DHT22;9744;49.364;7.484;2022-12-28T03:27:17;4.20;99.90
19220;DHT22;9744;49.364;7.484;2022-12-28T03:30:08;4.20;99.90
19220;DHT22;9744;49.364;7.484;2022-12-28T03:32:54;4.20;99.90
19220;DHT22;9744;49.364;7.484;2022-12-28T03:35:27;4.20;99.90
19220;DHT22;9744;49.364;7.484;2022-12-28T03:38:00;4.30;99.90
19220;DHT22;9744;49.364;7.484;2022-12-28T03:40:32;4.20;99.90
19220;DHT22;9744;49.364;7.484;2022-12-28T03:43:05;4.20;99.90
19220;DHT22;9744;49.364;7.484;2022-12-28T03:45:56;4.20;99.90
19220;DHT22;9744;49.364;7.484;2022-12-28T03:48:24;4.30;99.90
19220;DHT22;9744;49.364;7.484;2022-12-28T03:50:52;4.30;99.90
19220;DHT22;9744;49.364;7.484;2022-12-28T03:53:25;4.30;99.90
19220;DHT22;9744;49.364;7.484;2022-12-28T03:56:08;4.20;99.90
19220;DHT22;9744;49.364;7.484;2022-12-28T03:58:36;4.30;99.90
19220;DHT22;9744;49.364;7.484;2022-12-28T04:01:03;4.30;99.90
19220;DHT22;9744;49.364;7.484;2022-12-28T04:03:31;4.30;99.90
19220;DHT22;9744;49.364;7.484;2022-12-28T04:05:58;4.30;99.90
19220;DHT22;9744;49.364;7.484;2022-12-28T04:08:27;4.50;99.90
19220;DHT22;9744;49.364;7.484;2022-12-28T04:10:57;4.40;99.90
19220;DHT22;9744;49.364;7.484;2022-12-28T04:13:24;4.50;99.90
19220;DHT22;9744;49.364;7.484;2022-12-28T04:16:01;4.50;99.90
19220;DHT22;9744;49.364;7.484;2022-12-28T04:18:30;4.50;99.90
19220;DHT22;9744;49.364;7.484;2022-12-28T04:20:57;4.50;99.90
19220;DHT22;9744;49.364;7.484;2022-12-28T04:23:24;4.50;99.90
19220;DHT22;9744;49.364;7.484;2022-12-28T04:26:07;4.50;99.90
19220;DHT22;9744;49.364;7.484;2022-12-28T04:28:34;4.50;99.90
19220;DHT22;9744;49.364;7.484;2022-12-28T04:31:23;4.40;99.90
19220;DHT22;9744;49.364;7.484;2022-12-28T04:33:58;4.50;99.90
19220;DHT22;9744;49.364;7.484;2022-12-28T04:36:27;4.40;99.90
19220;DHT22;9744;49.364;7.484;2022-12-28T04:38:57;4.50;99.90
19220;DHT22;9744;49.364;7.484;2022-12-28T04:41:26;4.50;99.90
19220;DHT22;9744;49.364;7.484;2022-12-28T04:43:53;4.40;99.90
19220;DHT22;9744;49.364;7.484;2022-12-28T04:46:20;4.40;99.90
19220;DHT22;9744;49.364;7.484;2022-12-28T04:48:48;4.50;99.90
19220;DHT22;9744;49.364;7.484;2022-12-28T04:51:17;4.50;99.90
19220;DHT22;9744;49.364;7.484;2022-12-28T04:53:45;4.50;99.90
19220;DHT22;9744;49.364;7.484;2022-12-28T04:56:14;4.50;99.90
19220;DHT22;9744;49.364;7.484;2022-12-28T04:58:43;4.50;99.90
19220;DHT22;9744;49.364;7.484;2022-12-28T05:01:13;4.60;99.90
19220;DHT22;9744;49.364;7.484;2022-12-28T05:03:42;4.50;99.90
19220;DHT22;9744;49.364;7.484;2022-12-28T05:06:11;4.50;99.90
19220;DHT22;9744;49.364;7.484;2022-12-28T05:08:39;4.50;99.90
19220;DHT22;9744;49.364;7.484;2022-12-28T05:11:10;4.50;99.90
19220;DHT22;9744;49.364;7.484;2022-12-28T05:13:37;4.60;99.90
19220;DHT22;9744;49.364;7.484;2022-12-28T05:16:07;4.50;99.90
19220;DHT22;9744;49.364;7.484;2022-12-28T05:18:35;4.50;99.90
19220;DHT22;9744;49.364;7.484;2022-12-28T05:21:04;4.60;99.90
19220;DHT22;9744;49.364;7.484;2022-12-28T05:23:33;4.50;99.90
19220;DHT22;9744;49.364;7.484;2022-12-28T05:26:02;4.50;99.90
19220;DHT22;9744;49.364;7.484;2022-12-28T05:28:29;4.50;99.90
19220;DHT22;9744;49.364;7.484;2022-12-28T05:30:58;4.60;99.90
19220;DHT22;9744;49.364;7.484;2022-12-28T05:33:28;4.50;99.90
19220;DHT22;9744;49.364;7.484;2022-12-28T05:35:55;4.50;99.90
19220;DHT22;9744;49.364;7.484;2022-12-28T05:38:23;4.50;99.90
19220;DHT22;9744;49.364;7.484;2022-12-28T05:40:50;4.50;99.90
19220;DHT22;9744;49.364;7.484;2022-12-28T05:43:17;4.50;99.90
19220;DHT22;9744;49.364;7.484;2022-12-28T05:45:44;4.50;99.90
19220;DHT22;9744;49.364;7.484;2022-12-28T05:48:11;4.50;99.90
19220;DHT22;9744;49.364;7.484;2022-12-28T05:50:40;4.50;99.90
19220;DHT22;9744;49.364;7.484;2022-12-28T05:53:07;4.50;99.90
19220;DHT22;9744;49.364;7.484;2022-12-28T05:55:34;4.50;99.90
19220;DHT22;9744;49.364;7.484;2022-12-28T05:58:02;4.50;99.90
19220;DHT22;9744;49.364;7.484;2022-12-28T06:00:30;4.50;99.90
19220;DHT22;9744;49.364;7.484;2022-12-28T06:02:57;4.50;99.90
19220;DHT22;9744;49.364;7.484;2022-12-28T06:05:24;4.50;99.90
19220;DHT22;9744;49.364;7.484;2022-12-28T06:07:53;4.50;99.90
19220;DHT22;9744;49.364;7.484;2022-12-28T06:10:20;4.50;99.90
19220;DHT22;9744;49.364;7.484;2022-12-28T06:12:47;4.50;99.90
19220;DHT22;9744;49.364;7.484;2022-12-28T06:15:15;4.50;99.90
19220;DHT22;9744;49.364;7.484;2022-12-28T06:17:42;4.50;99.90
19220;DHT22;9744;49.364;7.484;2022-12-28T06:20:10;4.50;99.90
19220;DHT22;9744;49.364;7.484;2022-12-28T06:22:37;4.50;99.90
19220;DHT22;9744;49.364;7.484;2022-12-28T06:25:07;4.50;99.90
19220;DHT22;9744;49.364;7.484;2022-12-28T06:27:34;4.50;99.90
19220;DHT22;9744;49.364;7.484;2022-12-28T06:30:01;4.50;99.90
19220;DHT22;9744;49.364;7.484;2022-12-28T06:32:28;4.60;99.90
19220;DHT22;9744;49.364;7.484;2022-12-28T06:34:55;4.50;99.90
19220;DHT22;9744;49.364;7.484;2022-12-28T06:37:22;4.50;99.90
19220;DHT22;9744;49.364;7.484;2022-12-28T06:39:49;4.50;99.90
19220;DHT22;9744;49.364;7.484;2022-12-28T06:42:18;4.50;99.90
19220;DHT22;9744;49.364;7.484;2022-12-28T06:44:45;4.50;99.90
19220;DHT22;9744;49.364;7.484;2022-12-28T06:47:12;4.50;99.90
19220;DHT22;9744;49.364;7.484;2022-12-28T06:49:39;4.70;99.90
19220;DHT22;9744;49.364;7.484;2022-12-28T06:52:06;4.50;99.90
19220;DHT22;9744;49.364;7.484;2022-12-28T06:54:33;4.60;99.90
19220;DHT22;9744;49.364;7.484;2022-12-28T06:57:00;4.60;99.90
19220;DHT22;9744;49.364;7.484;2022-12-28T06:59:29;4.50;99.90
19220;DHT22;9744;49.364;7.484;2022-12-28T07:01:56;4.50;99.90
19220;DHT22;9744;49.364;7.484;2022-12-28T07:04:23;4.50;99.90
19220;DHT22;9744;49.364;7.484;2022-12-28T07:06:50;4.50;99.90
19220;DHT22;9744;49.364;7.484;2022-12-28T07:09:17;4.50;99.90
19220;DHT22;9744;49.364;7.484;2022-12-28T07:11:45;4.50;99.90
19220;DHT22;9744;49.364;7.484;2022-12-28T07:14:15;4.60;99.90
19220;DHT22;9744;49.364;7.484;2022-12-28T07:16:43;4.50;99.90
19220;DHT22;9744;49.364;7.484;2022-12-28T07:19:11;4.50;99.90
19220;DHT22;9744;49.364;7.484;2022-12-28T07:21:39;4.70;99.90
19220;DHT22;9744;49.364;7.484;2022-12-28T07:24:07;4.60;99.90
19220;DHT22;9744;49.364;7.484;2022-12-28T07:26:36;4.60;99.90
19220;DHT22;9744;49.364;7.484;2022-12-28T07:29:05;4.60;99.90
19220;DHT22;9744;49.364;7.484;2022-12-28T07:31:33;4.60;99.90
19220;DHT22;9744;49.364;7.484;2022-12-28T07:34:02;4.60;99.90
19220;DHT22;9744;49.364;7.484;2022-12-28T07:36:31;4.70;99.90
19220;DHT22;9744;49.364;7.484;2022-12-28T07:38:59;4.60;99.90
19220;DHT22;9744;49.364;7.484;2022-12-28T07:41:27;4.70;99.90
19220;DHT22;9744;49.364;7.484;2022-12-28T07:43:57;4.70;99.90
19220;DHT22;9744;49.364;7.484;2022-12-28T07:46:26;4.70;99.90
19220;DHT22;9744;49.364;7.484;2022-12-28T07:48:54;4.70;99.90
19220;DHT22;9744;49.364;7.484;2022-12-28T07:51:24;4.70;99.90
19220;DHT22;9744;49.364;7.484;2022-12-28T07:53:53;4.70;99.90
19220;DHT22;9744;49.364;7.484;2022-12-28T07:56:21;4.70;99.90
19220;DHT22;9744;49.364;7.484;2022-12-28T07:58:49;4.70;99.90
19220;DHT22;9744;49.364;7.484;2022-12-28T08:01:20;4.70;99.90
19220;DHT22;9744;49.364;7.484;2022-12-28T08:03:52;4.70;99.90
19220;DHT22;9744;49.364;7.484;2022-12-28T08:06:21;4.80;99.90
19220;DHT22;9744;49.364;7.484;2022-12-28T08:08:51;4.70;99.90
19220;DHT22;9744;49.364;7.484;2022-12-28T08:11:20;4.70;99.90
19220;DHT22;9744;49.364;7.484;2022-12-28T08:13:49;4.80;99.90
19220;DHT22;9744;49.364;7.484;2022-12-28T08:16:17;4.80;99.90
19220;DHT22;9744;49.364;7.484;2022-12-28T08:18:45;4.80;99.90
19220;DHT22;9744;49.364;7.484;2022-12-28T08:21:13;4.80;99.90
19220;DHT22;9744;49.364;7.484;2022-12-28T08:23:41;4.70;99.90
19220;DHT22;9744;49.364;7.484;2022-12-28T08:26:12;4.80;99.90
19220;DHT22;9744;49.364;7.484;2022-12-28T08:28:41;4.80;99.90
19220;DHT22;9744;49.364;7.484;2022-12-28T08:31:10;4.70;99.90
19220;DHT22;9744;49.364;7.484;2022-12-28T08:33:38;4.70;99.90
19220;DHT22;9744;49.364;7.484;2022-12-28T08:36:06;4.80;99.90
19220;DHT22;9744;49.364;7.484;2022-12-28T08:38:34;4.80;99.90
19220;DHT22;9744;49.364;7.484;2022-12-28T08:41:03;4.90;99.90
19220;DHT22;9744;49.364;7.484;2022-12-28T08:43:33;4.80;99.90
19220;DHT22;9744;49.364;7.484;2022-12-28T08:46:02;4.80;99.90
19220;DHT22;9744;49.364;7.484;2022-12-28T08:48:31;4.80;99.90
19220;DHT22;9744;49.364;7.484;2022-12-28T08:51:00;4.80;99.90
19220;DHT22;9744;49.364;7.484;2022-12-28T08:53:28;4.90;99.90
19220;DHT22;9744;49.364;7.484;2022-12-28T08:55:55;4.80;99.90
19220;DHT22;9744;49.364;7.484;2022-12-28T08:58:22;4.90;99.90
19220;DHT22;9744;49.364;7.484;2022-12-28T09:00:51;5.00;99.90
19220;DHT22;9744;49.364;7.484;2022-12-28T09:03:20;3.70;99.90
19220;DHT22;9744;49.364;7.484;2022-12-28T09:05:47;5.00;99.90
19220;DHT22;9744;49.364;7.484;2022-12-28T09:08:14;5.00;99.90
19220;DHT22;9744;49.364;7.484;2022-12-28T09:10:42;5.10;99.90
19220;DHT22;9744;49.364;7.484;2022-12-28T09:13:09;5.20;99.90
19220;DHT22;9744;49.364;7.484;2022-12-28T09:15:37;5.00;99.90
19220;DHT22;9744;49.364;7.484;2022-12-28T09:18:06;4.00;99.90
19220;DHT22;9744;49.364;7.484;2022-12-28T09:20:34;5.10;99.90
19220;DHT22;9744;49.364;7.484;2022-12-28T09:23:02;4.90;99.90
19220;DHT22;9744;49.364;7.484;2022-12-28T09:25:29;5.20;99.90
19220;DHT22;9744;49.364;7.484;2022-12-28T09:27:56;5.20;99.90
19220;DHT22;9744;49.364;7.484;2022-12-28T09:30:24;5.30;99.90
19220;DHT22;9744;49.364;7.484;2022-12-28T09:32:53;5.20;99.90
19220;DHT22;9744;49.364;7.484;2022-12-28T09:35:43;5.30;99.90
19220;DHT22;9744;49.364;7.484;2022-12-28T09:38:10;5.30;99.90
19220;DHT22;9744;49.364;7.484;2022-12-28T09:40:38;5.30;99.90
19220;DHT22;9744;49.364;7.484;2022-12-28T09:43:07;5.40;99.90
19220;DHT22;9744;49.364;7.484;2022-12-28T09:45:35;5.40;99.90
19220;DHT22;9744;49.364;7.484;2022-12-28T09:48:04;5.50;99.90
19220;DHT22;9744;49.364;7.484;2022-12-28T09:50:33;5.70;99.90
19220;DHT22;9744;49.364;7.484;2022-12-28T09:53:27;5.70;99.90
19220;DHT22;9744;49.364;7.484;2022-12-28T09:56:05;5.90;99.90
19220;DHT22;9744;49.364;7.484;2022-12-28T09:58:37;6.00;99.90
19220;DHT22;9744;49.364;7.484;2022-12-28T10:01:10;6.00;99.90
19220;DHT22;9744;49.364;7.484;2022-12-28T10:03:40;6.00;99.90
19220;DHT22;9744;49.364;7.484;2022-12-28T10:06:10;5.90;99.90
19220;DHT22;9744;49.364;7.484;2022-12-28T10:08:43;5.90;99.90
19220;DHT22;9744;49.364;7.484;2022-12-28T10:11:15;5.90;99.90
19220;DHT22;9744;49.364;7.484;2022-12-28T10:13:43;5.90;99.90
19220;DHT22;9744;49.364;7.484;2022-12-28T10:16:16;6.00;99.90
19220;DHT22;9744;49.364;7.484;2022-12-28T10:18:44;6.10;99.90
19220;DHT22;9744;49.364;7.484;2022-12-28T10:21:12;6.20;99.90
19220;DHT22;9744;49.364;7.484;2022-12-28T10:23:42;6.40;99.90
19220;DHT22;9744;49.364;7.484;2022-12-28T10:26:15;6.40;99.90
19220;DHT22;9744;49.364;7.484;2022-12-28T10:28:46;6.40;99.90
19220;DHT22;9744;49.364;7.484;2022-12-28T10:31:14;6.40;99.90
19220;DHT22;9744;49.364;7.484;2022-12-28T10:33:49;6.40;99.90
19220;DHT22;9744;49.364;7.484;2022-12-28T10:36:19;6.90;99.90
19220;DHT22;9744;49.364;7.484;2022-12-28T10:38:53;6.50;99.90
19220;DHT22;9744;49.364;7.484;2022-12-28T10:41:32;6.50;99.90
19220;DHT22;9744;49.364;7.484;2022-12-28T10:44:15;6.50;99.90
19220;DHT22;9744;49.364;7.484;2022-12-28T10:46:56;6.40;99.90
19220;DHT22;9744;49.364;7.484;2022-12-28T10:49:35;6.30;99.90
19220;DHT22;9744;49.364;7.484;2022-12-28T10:52:06;6.50;99.90
19220;DHT22;9744;49.364;7.484;2022-12-28T10:54:47;6.50;99.90
19220;DHT22;9744;49.364;7.484;2022-12-28T10:57:27;5.30;99.90
19220;DHT22;9744;49.364;7.484;2022-12-28T11:00:13;6.50;99.90
19220;DHT22;9744;49.364;7.484;2022-12-28T11:02:42;6.60;99.90
19220;DHT22;9744;49.364;7.484;2022-12-28T11:05:18;6.70;99.90
19220;DHT22;9744;49.364;7.484;2022-12-28T11:07:46;6.80;99.90
19220;DHT22;9744;49.364;7.484;2022-12-28T11:10:28;6.60;99.90
19220;DHT22;9744;49.364;7.484;2022-12-28T11:12:58;6.70;99.90
19220;DHT22;9744;49.364;7.484;2022-12-28T11:15:28;6.30;99.90
19220;DHT22;9744;49.364;7.484;2022-12-28T11:17:57;7.30;99.90
19220;DHT22;9744;49.364;7.484;2022-12-28T11:20:31;6.00;99.90
19220;DHT22;9744;49.364;7.484;2022-12-28T11:22:59;6.80;99.90
19220;DHT22;9744;49.364;7.484;2022-12-28T11:25:30;6.90;99.90
19220;DHT22;9744;49.364;7.484;2022-12-28T11:28:00;6.30;99.90
19220;DHT22;9744;49.364;7.484;2022-12-28T11:30:31;7.00;99.90
19220;DHT22;9744;49.364;7.484;2022-12-28T11:33:25;6.90;99.90
19220;DHT22;9744;49.364;7.484;2022-12-28T11:35:55;7.10;99.90
19220;DHT22;9744;49.364;7.484;2022-12-28T11:38:40;7.10;99.90
19220;DHT22;9744;49.364;7.484;2022-12-28T11:41:11;7.10;99.90
19220;DHT22;9744;49.364;7.484;2022-12-28T11:43:51;7.20;99.90
19220;DHT22;9744;49.364;7.484;2022-12-28T11:46:40;7.30;99.90
19220;DHT22;9744;49.364;7.484;2022-12-28T11:49:34;7.30;99.90
19220;DHT22;9744;49.364;7.484;2022-12-28T11:52:33;7.60;99.90
19220;DHT22;9744;49.364;7.484;2022-12-28T12:01:54;7.60;99.90
19220;DHT22;9744;49.364;7.484;2022-12-28T12:04:37;7.50;99.90
19220;DHT22;9744;49.364;7.484;2022-12-28T12:07:25;7.50;99.90
19220;DHT22;9744;49.364;7.484;2022-12-28T12:13:40;7.60;99.90
19220;DHT22;9744;49.364;7.484;2022-12-28T12:16:26;7.50;99.90
19220;DHT22;9744;49.364;7.484;2022-12-28T12:19:00;7.50;99.90
19220;DHT22;9744;49.364;7.484;2022-12-28T12:21:35;7.60;99.90
19220;DHT22;9744;49.364;7.484;2022-12-28T12:24:28;7.50;99.90
19220;DHT22;9744;49.364;7.484;2022-12-28T12:27:01;7.50;99.90
19220;DHT22;9744;49.364;7.484;2022-12-28T12:29:38;7.40;99.90
19220;DHT22;9744;49.364;7.484;2022-12-28T12:32:13;7.40;99.90
19220;DHT22;9744;49.364;7.484;2022-12-28T12:34:54;7.40;99.90
19220;DHT22;9744;49.364;7.484;2022-12-28T12:37:43;7.30;99.90
19220;DHT22;9744;49.364;7.484;2022-12-28T12:43:31;7.30;99.90
19220;DHT22;9744;49.364;7.484;2022-12-28T12:46:31;7.30;99.90
19220;DHT22;9744;49.364;7.484;2022-12-28T12:49:16;7.30;99.90
19220;DHT22;9744;49.364;7.484;2022-12-28T12:51:58;7.30;99.90
19220;DHT22;9744;49.364;7.484;2022-12-28T12:54:40;7.30;99.90
19220;DHT22;9744;49.364;7.484;2022-12-28T12:57:13;7.20;99.90
19220;DHT22;9744;49.364;7.484;2022-12-28T12:59:55;7.20;99.90
19220;DHT22;9744;49.364;7.484;2022-12-28T13:05:18;7.20;99.90
19220;DHT22;9744;49.364;7.484;2022-12-28T13:07:48;7.20;99.90
19220;DHT22;9744;49.364;7.484;2022-12-28T13:10:25;7.20;99.90
19220;DHT22;9744;49.364;7.484;2022-12-28T13:12:58;7.10;99.90
19220;DHT22;9744;49.364;7.484;2022-12-28T13:15:26;7.10;99.90
19220;DHT22;9744;49.364;7.484;2022-12-28T13:18:02;7.10;99.90
19220;DHT22;9744;49.364;7.484;2022-12-28T13:20:30;7.00;99.90
19220;DHT22;9744;49.364;7.484;2022-12-28T13:22:59;7.00;99.90
19220;DHT22;9744;49.364;7.484;2022-12-28T13:25:29;7.00;99.90
19220;DHT22;9744;49.364;7.484;2022-12-28T13:27:58;7.10;99.90
19220;DHT22;9744;49.364;7.484;2022-12-28T13:30:32;7.10;99.90
19220;DHT22;9744;49.364;7.484;2022-12-28T13:33:00;7.10;99.90
19220;DHT22;9744;49.364;7.484;2022-12-28T13:35:30;7.10;99.90
19220;DHT22;9744;49.364;7.484;2022-12-28T13:38:00;7.10;99.90
19220;DHT22;9744;49.364;7.484;2022-12-28T13:40:29;7.10;99.90
19220;DHT22;9744;49.364;7.484;2022-12-28T13:43:29;7.10;99.90
19220;DHT22;9744;49.364;7.484;2022-12-28T13:46:05;7.10;99.90
19220;DHT22;9744;49.364;7.484;2022-12-28T13:48:37;7.10;99.90
19220;DHT22;9744;49.364;7.484;2022-12-28T13:51:11;7.00;99.90
19220;DHT22;9744;49.364;7.484;2022-12-28T13:53:43;7.00;99.90
19220;DHT22;9744;49.364;7.484;2022-12-28T13:56:12;6.90;99.90
19220;DHT22;9744;49.364;7.484;2022-12-28T13:58:43;7.00;99.90
19220;DHT22;9744;49.364;7.484;2022-12-28T14:01:17;7.00;99.90
19220;DHT22;9744;49.364;7.484;2022-12-28T14:03:46;6.50;99.90
19220;DHT22;9744;49.364;7.484;2022-12-28T14:06:16;7.00;99.90
19220;DHT22;9744;49.364;7.484;2022-12-28T14:08:45;7.00;99.90
19220;DHT22;9744;49.364;7.484;2022-12-28T14:11:15;7.00;99.90
19220;DHT22;9744;49.364;7.484;2022-12-28T14:13:43;7.00;99.90
19220;DHT22;9744;49.364;7.484;2022-12-28T14:16:11;7.00;99.90
19220;DHT22;9744;49.364;7.484;2022-12-28T14:18:39;7.00;99.90
19220;DHT22;9744;49.364;7.484;2022-12-28T14:21:07;7.00;99.90
19220;DHT22;9744;49.364;7.484;2022-12-28T14:23:35;6.90;99.90
19220;DHT22;9744;49.364;7.484;2022-12-28T14:26:06;6.90;99.90
19220;DHT22;9744;49.364;7.484;2022-12-28T14:28:36;6.90;99.90
19220;DHT22;9744;49.364;7.484;2022-12-28T14:31:07;6.80;99.90
19220;DHT22;9744;49.364;7.484;2022-12-28T14:33:37;6.80;99.90
19220;DHT22;9744;49.364;7.484;2022-12-28T14:36:15;6.90;99.90
19220;DHT22;9744;49.364;7.484;2022-12-28T14:38:46;6.80;99.90
19220;DHT22;9744;49.364;7.484;2022-12-28T14:41:19;6.80;99.90
19220;DHT22;9744;49.364;7.484;2022-12-28T14:43:50;6.70;99.90
19220;DHT22;9744;49.364;7.484;2022-12-28T14:46:29;6.70;99.90
19220;DHT22;9744;49.364;7.484;2022-12-28T14:48:57;6.70;99.90
19220;DHT22;9744;49.364;7.484;2022-12-28T14:51:27;6.70;99.90
19220;DHT22;9744;49.364;7.484;2022-12-28T14:54:21;6.70;99.90
19220;DHT22;9744;49.364;7.484;2022-12-28T14:56:54;6.70;99.90
19220;DHT22;9744;49.364;7.484;2022-12-28T14:59:26;6.70;99.90
19220;DHT22;9744;49.364;7.484;2022-12-28T15:01:55;6.60;99.90
19220;DHT22;9744;49.364;7.484;2022-12-28T15:04:26;6.60;99.90
19220;DHT22;9744;49.364;7.484;2022-12-28T15:06:55;6.60;99.90
19220;DHT22;9744;49.364;7.484;2022-12-28T15:09:23;5.80;99.90
19220;DHT22;9744;49.364;7.484;2022-12-28T15:14:51;6.70;99.90
19220;DHT22;9744;49.364;7.484;2022-12-28T15:17:18;6.70;99.90
19220;DHT22;9744;49.364;7.484;2022-12-28T15:19:45;6.70;99.90
19220;DHT22;9744;49.364;7.484;2022-12-28T15:22:13;6.70;99.90
19220;DHT22;9744;49.364;7.484;2022-12-28T15:24:40;6.80;99.90
19220;DHT22;9744;49.364;7.484;2022-12-28T15:27:09;6.70;99.90
19220;DHT22;9744;49.364;7.484;2022-12-28T15:29:37;6.80;99.90
19220;DHT22;9744;49.364;7.484;2022-12-28T15:32:05;6.70;99.90
19220;DHT22;9744;49.364;7.484;2022-12-28T15:34:33;6.70;99.90
19220;DHT22;9744;49.364;7.484;2022-12-28T15:37:00;6.70;99.90
19220;DHT22;9744;49.364;7.484;2022-12-28T15:39:27;6.70;99.90
19220;DHT22;9744;49.364;7.484;2022-12-28T15:41:56;6.70;99.90
19220;DHT22;9744;49.364;7.484;2022-12-28T15:44:23;6.60;99.90
19220;DHT22;9744;49.364;7.484;2022-12-28T15:46:51;6.60;99.90
19220;DHT22;9744;49.364;7.484;2022-12-28T15:49:20;6.50;99.90
19220;DHT22;9744;49.364;7.484;2022-12-28T15:51:48;6.60;99.90
19220;DHT22;9744;49.364;7.484;2022-12-28T15:54:15;6.50;99.90
19220;DHT22;9744;49.364;7.484;2022-12-28T15:56:50;6.60;99.90
19220;DHT22;9744;49.364;7.484;2022-12-28T15:59:18;6.70;99.90
19220;DHT22;9744;49.364;7.484;2022-12-28T16:01:46;6.60;99.90
19220;DHT22;9744;49.364;7.484;2022-12-28T16:04:13;6.60;99.90
19220;DHT22;9744;49.364;7.484;2022-12-28T16:06:42;6.60;99.90
19220;DHT22;9744;49.364;7.484;2022-12-28T16:09:10;6.50;99.90
19220;DHT22;9744;49.364;7.484;2022-12-28T16:11:38;6.50;99.90
19220;DHT22;9744;49.364;7.484;2022-12-28T16:14:10;6.50;99.90
19220;DHT22;9744;49.364;7.484;2022-12-28T16:16:39;6.60;99.90
19220;DHT22;9744;49.364;7.484;2022-12-28T16:19:07;6.50;99.90
19220;DHT22;9744;49.364;7.484;2022-12-28T16:21:34;6.60;99.90
19220;DHT22;9744;49.364;7.484;2022-12-28T16:24:03;6.70;99.90
19220;DHT22;9744;49.364;7.484;2022-12-28T16:26:31;6.60;99.90
19220;DHT22;9744;49.364;7.484;2022-12-28T16:28:58;6.60;99.90
19220;DHT22;9744;49.364;7.484;2022-12-28T16:31:27;6.50;99.90
19220;DHT22;9744;49.364;7.484;2022-12-28T16:33:56;6.60;99.90
19220;DHT22;9744;49.364;7.484;2022-12-28T16:36:24;6.60;99.90
19220;DHT22;9744;49.364;7.484;2022-12-28T16:38:52;6.60;99.90
19220;DHT22;9744;49.364;7.484;2022-12-28T16:41:21;6.70;99.90
19220;DHT22;9744;49.364;7.484;2022-12-28T16:43:49;6.70;99.90
19220;DHT22;9744;49.364;7.484;2022-12-28T16:46:17;6.70;99.90
19220;DHT22;9744;49.364;7.484;2022-12-28T16:48:45;6.70;99.90
19220;DHT22;9744;49.364;7.484;2022-12-28T16:51:13;6.70;99.90
19220;DHT22;9744;49.364;7.484;2022-12-28T16:53:40;6.70;99.90
19220;DHT22;9744;49.364;7.484;2022-12-28T16:56:09;6.80;99.90